Last 48 Hours

Top of 15 - 9,047ft

15 Minute Data | America/Los_Angeles
as of 8/30/26 5:05 PM PDT
Date & Time Temp (°F) WindChill (°F) RH (%) Dew Pt (°F) Wet Bulb (°F) Wind Dir (°) Wind Spd (mph) Wind Gust (mph) Wind Gst Dir (°) Daily Min Temp (°F) Daily Max Temp (°F) Daily Max Wind (mph)
8/30/26 - 1700 58.8 - 30 27.1 44.5 SW | 223 9.1 18.5 SSW | 211 47.6 64.0 27.2
8/30/26 - 1645 59.1 - 30 27.4 44.8 SW | 228 9.6 18.9 WSW | 244 47.6 64.0 27.2
8/30/26 - 1630 59.4 - 29 27.4 44.9 SW | 222 10.0 23.9 WSW | 242 47.6 64.0 27.2
8/30/26 - 1615 59.7 - 29 27.7 45.1 SW | 218 9.4 19.8 WSW | 246 47.6 64.0 27.2
8/30/26 - 1600 59.6 - 30 27.8 45.1 SW | 224 9.6 20.4 WSW | 254 47.6 64.0 27.2
8/30/26 - 1545 60.2 - 27 26.5 45.0 SW | 233 10.1 18.1 WSW | 258 47.6 64.0 27.2
8/30/26 - 1530 60.1 - 27 25.8 44.8 SW | 233 8.7 19.7 WSW | 246 47.6 64.0 27.2
8/30/26 - 1515 60.5 - 24 23.5 44.3 SW | 215 7.1 22.6 SW | 231 47.6 64.0 27.2
8/30/26 - 1500 60.6 - 23 22.7 44.1 SSW | 206 6.4 15.3 SSW | 198 47.6 64.0 27.2
8/30/26 - 1445 60.7 - 21 21.0 43.8 SW | 221 7.1 16.8 SW | 232 47.6 64.0 27.2
8/30/26 - 1430 60.9 - 20 19.4 43.5 SSW | 207 7.3 19.9 S | 189 47.6 64.0 27.2
8/30/26 - 1415 60.7 - 19 17.6 43.0 SW | 224 7.0 18.8 SW | 227 47.6 64.0 27.2
8/30/26 - 1400 61.4 - 18 17.0 43.2 SW | 223 5.6 14.5 WSW | 238 47.6 64.0 27.2
8/30/26 - 1345 61.3 - 16 14.6 42.7 SW | 227 5.5 15.2 WSW | 248 47.6 64.0 27.2
8/30/26 - 1330 60.4 - 16 13.8 42.1 SSW | 204 4.4 15.3 SSW | 193 47.6 64.0 27.2
8/30/26 - 1315 61.0 - 15 13.6 42.4 SSW | 204 4.3 13.9 SW | 221 47.6 64.0 27.2
8/30/26 - 1300 61.9 - 14 12.6 42.6 SSW | 212 3.8 13.6 W | 268 47.6 64.0 27.2
8/30/26 - 1245 61.7 - 16 14.4 42.8 SSW | 204 3.5 9.7 SSE | 155 47.6 64.0 27.2
8/30/26 - 1230 62.7 - 16 16.2 43.6 SSW | 193 4.1 13.2 SW | 235 47.6 64.0 27.2
8/30/26 - 1215 62.4 - 17 17.0 43.6 S | 185 3.3 9.4 SSW | 198 47.6 64.0 27.2
8/30/26 - 1200 60.6 - 18 16.6 42.7 ESE | 116 3.1 9.5 SSE | 156 47.6 64.0 27.2
8/30/26 - 1145 62.7 - 16 16.2 43.6 E | 92 2.9 8.2 ESE | 117 47.6 64.0 27.2
8/30/26 - 1130 61.4 - 16 14.7 42.7 E | 83 3.5 11.8 ESE | 119 47.6 62.7 27.2
8/30/26 - 1115 61.2 - 15 13.8 42.5 ESE | 116 1.8 9.3 E | 101 47.6 62.7 27.2
8/30/26 - 1100 60.8 - 16 14.4 42.4 E | 83 2.5 8.2 ENE | 76 47.6 61.6 27.2
8/30/26 - 1045 60.2 - 16 13.3 42.0 ESE | 105 3.3 11.2 ESE | 118 47.6 61.4 27.2
8/30/26 - 1030 58.5 - 16 12.2 41.0 ESE | 118 2.9 8.6 E | 87 47.6 60.3 27.2
8/30/26 - 1015 58.5 - 16 11.8 41.0 E | 100 3.1 10.3 ESE | 112 47.6 59.8 27.2
8/30/26 - 1000 58.5 - 15 11.6 40.9 E | 90 2.6 6.5 E | 89 47.6 59.8 27.2
8/30/26 - 0945 57.8 - 17 12.8 40.8 ESE | 118 1.0 4.5 NE | 41 47.6 58.5 27.2
8/30/26 - 0930 57.4 - 17 13.0 40.6 ESE | 108 2.7 6.2 E | 88 47.6 58.2 27.2
8/30/26 - 0915 55.6 - 16 10.1 39.3 ESE | 104 2.8 6.8 ESE | 109 47.6 56.7 27.2
8/30/26 - 0900 55.1 - 16 10.0 39.0 SE | 137 2.5 6.7 SE | 140 47.6 55.9 27.2
8/30/26 - 0845 54.4 - 17 10.4 38.7 S | 187 2.6 7.7 SSW | 198 47.6 54.7 27.2
8/30/26 - 0830 54.0 - 18 11.9 38.8 SSW | 192 3.5 11.0 WSW | 256 47.6 54.7 27.2
8/30/26 - 0815 52.6 - 21 13.6 38.4 SSW | 205 4.4 13.3 SSW | 208 47.6 53.1 27.2
8/30/26 - 0800 51.8 - 25 16.9 38.7 SSW | 213 5.1 15.2 WSW | 245 47.6 52.1 27.2
8/30/26 - 0745 51.3 - 29 19.8 39.1 SSW | 213 2.4 8.6 SW | 221 47.6 51.7 27.2
8/30/26 - 0730 51.0 - 29 20.0 39.0 SW | 219 4.6 15.8 WSW | 250 47.6 51.2 27.2
8/30/26 - 0715 50.4 - 28 18.9 38.4 SSW | 194 5.3 16.3 SSW | 208 47.6 50.8 27.2
8/30/26 - 0700 49.7 46.6 30 19.2 38.1 SW | 218 7.3 20.6 SW | 232 47.6 50.1 27.2
8/30/26 - 0645 49.0 45.2 30 19.3 37.8 SW | 226 8.9 20.8 SSW | 210 47.6 49.3 27.2
8/30/26 - 0630 48.1 43.8 32 19.8 37.4 SW | 217 9.7 24.8 SSW | 197 47.6 49.3 27.2
8/30/26 - 0615 48.0 43.9 33 20.4 37.5 SW | 221 8.8 22.3 SW | 215 47.7 49.3 27.2
8/30/26 - 0600 48.3 44.8 31 19.3 37.4 SW | 215 7.7 17.2 SSW | 196 48.0 49.3 27.2
8/30/26 - 0545 48.6 45.2 31 19.4 37.6 SW | 214 7.6 17.2 SW | 214 48.4 49.3 27.2
8/30/26 - 0530 48.7 44.9 30 18.9 37.5 SSW | 210 8.7 23.6 SSW | 213 48.5 49.3 27.2
8/30/26 - 0515 48.8 45.3 30 18.9 37.6 SSW | 198 7.9 18.9 SSW | 211 48.5 49.3 27.2
8/30/26 - 0500 48.7 44.9 31 19.2 37.6 SSW | 198 8.6 21.3 S | 180 48.5 49.3 27.2
8/30/26 - 0445 48.8 46.2 31 19.4 37.7 SSW | 203 6.1 18.7 SW | 226 48.5 49.3 27.2
8/30/26 - 0430 48.7 45.1 32 20.2 37.8 SSW | 197 8.3 20.4 SSW | 198 48.5 49.3 27.2
8/30/26 - 0415 48.8 44.9 32 20.2 37.9 SSW | 200 8.9 20.3 SSW | 211 48.5 49.3 27.2
8/30/26 - 0400 48.9 44.5 32 20.2 37.9 SSW | 205 10.5 21.5 SSW | 204 48.5 49.3 27.2
8/30/26 - 0345 48.9 45.0 32 20.5 38.0 SSW | 202 9.2 22.9 SW | 214 48.5 49.3 27.2
8/30/26 - 0330 48.9 44.8 34 21.6 38.3 SSW | 209 9.8 27.2 SSW | 212 48.5 49.3 27.2
8/30/26 - 0315 48.8 44.0 37 23.5 38.8 SW | 217 11.5 26.7 SW | 236 48.5 49.3 26.7
8/30/26 - 0300 49.0 44.6 38 24.6 39.1 SSW | 210 10.5 25.4 SW | 220 48.5 49.3 25.4
8/30/26 - 0245 49.0 44.2 39 24.8 39.2 SW | 216 11.8 25.4 SW | 233 48.5 49.1 25.4
8/30/26 - 0230 48.8 44.9 41 26.1 39.5 SW | 220 8.8 22.4 SSW | 209 48.5 49.1 22.4
8/30/26 - 0215 48.9 45.0 39 24.9 39.2 SW | 218 8.9 21.4 SSW | 207 48.5 49.1 21.4
8/30/26 - 0200 48.8 45.9 41 26.2 39.6 SW | 220 6.7 17.6 SW | 219 48.5 49.1 17.9
8/30/26 - 0145 48.9 47.1 39 25.0 39.2 SW | 220 4.7 16.7 S | 171 48.5 49.1 17.9
8/30/26 - 0130 49.0 46.7 38 24.3 39.1 SW | 216 5.6 17.9 WSW | 244 48.5 49.1 17.9
8/30/26 - 0115 48.9 46.8 40 25.5 39.4 SW | 225 5.2 15.9 SW | 223 48.5 49.1 15.9
8/30/26 - 0100 49.2 - 38 24.5 39.3 SW | 233 2.5 8.2 SW | 220 48.1 59.8 27.3
8/30/26 - 0045 49.9 - 34 23.0 39.2 SW | 214 1.5 5.5 S | 191 48.1 59.8 27.3
8/30/26 - 0030 50.4 - 33 22.2 39.2 SSW | 198 2.9 8.1 S | 178 48.1 59.8 27.3
8/30/26 - 0015 50.6 - 34 23.5 39.6 SSW | 205 2.6 10.6 S | 189 48.1 59.8 27.3
8/30/26 - 0000 50.8 - 32 22.1 39.4 SSW | 210 2.1 8.3 SSW | 192 48.1 59.8 27.3
8/29/26 - 2345 50.6 - 35 23.9 39.8 SW | 215 3.5 8.8 SW | 228 48.1 59.8 27.3
8/29/26 - 2330 50.6 - 38 25.7 40.3 SW | 226 3.9 11.5 WSW | 246 48.1 59.8 27.3
8/29/26 - 2315 50.3 - 41 27.7 40.8 SW | 230 4.2 13.2 WSW | 248 48.1 59.8 27.3
8/29/26 - 2300 49.9 47.1 47 30.6 41.5 SW | 226 6.9 15.2 SW | 222 48.1 59.8 27.3
8/29/26 - 2245 49.8 46.6 50 32.2 42.1 SW | 233 7.9 15.3 W | 260 48.1 59.8 27.3
8/29/26 - 2230 49.9 47.3 51 32.2 42.1 SW | 235 6.5 12.5 WSW | 246 48.1 59.8 27.3
8/29/26 - 2215 49.5 46.5 52 32.7 42.1 SW | 236 7.2 17.0 WSW | 244 48.1 59.8 27.3
8/29/26 - 2200 49.4 47.8 51 32.1 41.8 SW | 236 4.6 10.3 WSW | 238 48.1 59.8 27.3
8/29/26 - 2145 48.5 46.5 61 35.6 42.7 WSW | 244 4.9 11.0 W | 260 48.1 59.8 27.3
8/29/26 - 2130 48.4 - 64 36.7 43.2 WSW | 244 2.6 7.7 W | 261 48.2 59.8 27.3
8/29/26 - 2115 48.4 - 64 36.8 43.2 SW | 229 2.6 6.6 SW | 220 48.2 59.8 27.3
8/29/26 - 2100 48.7 - 63 36.7 43.3 SW | 227 1.5 5.5 SW | 215 48.2 59.8 27.3
8/29/26 - 2045 49.0 - 62 36.6 43.4 SW | 230 0.4 2.0 W | 266 48.2 59.8 27.3
8/29/26 - 2030 49.1 - 62 36.6 43.4 WSW | 248 2.8 9.8 W | 277 48.2 59.8 27.3
8/29/26 - 2015 49.3 - 61 36.4 43.5 WSW | 256 1.5 7.3 W | 268 48.2 59.8 27.3
8/29/26 - 2000 49.7 - 60 36.4 43.6 W | 265 2.6 11.2 WSW | 240 48.2 59.8 27.3
8/29/26 - 1945 50.2 - 59 36.3 43.9 WSW | 254 1.2 6.2 W | 275 48.2 59.8 27.3
8/29/26 - 1930 50.9 - 56 35.8 44.0 SW | 236 1.8 7.3 S | 183 48.2 59.8 27.3
8/29/26 - 1915 51.4 - 50 33.6 43.4 S | 190 1.0 7.2 WSW | 243 48.2 59.8 27.3
8/29/26 - 1900 51.8 - 49 33.4 43.5 WNW | 289 1.2 6.1 WNW | 290 48.2 59.8 27.3
8/29/26 - 1845 52.2 - 48 33.3 43.6 SW | 222 1.0 5.0 SW | 232 48.2 59.8 27.3
8/29/26 - 1830 52.6 - 46 32.2 43.4 SSW | 208 4.2 17.4 S | 183 48.2 59.8 27.3
8/29/26 - 1815 52.9 - 45 32.2 43.6 SW | 229 3.1 14.2 W | 259 48.2 59.8 27.3
8/29/26 - 1800 53.4 - 46 33.3 44.2 SW | 234 2.7 10.2 SW | 224 48.2 59.8 27.3
8/29/26 - 1745 54.5 - 43 32.3 44.3 SW | 227 2.2 11.0 SSW | 194 48.2 59.8 27.3
8/29/26 - 1730 54.8 - 43 32.8 44.7 SSW | 203 3.3 12.3 S | 191 48.2 59.8 27.3
8/29/26 - 1715 55.0 - 45 33.9 45.2 SSW | 206 2.8 11.2 S | 180 48.2 59.8 27.3
8/29/26 - 1700 55.5 - 42 32.6 44.9 SW | 216 3.0 13.3 WSW | 256 48.2 59.8 27.3
8/29/26 - 1645 55.8 - 41 32.4 44.9 SW | 218 3.5 14.3 SW | 235 48.2 59.8 27.3
8/29/26 - 1630 56.3 - 42 33.5 45.6 SW | 215 4.6 18.5 SSW | 212 48.2 59.8 27.3
8/29/26 - 1615 55.9 - 47 36.1 46.4 SW | 216 3.7 17.2 WSW | 238 48.2 59.8 27.3
8/29/26 - 1600 56.4 - 48 36.9 47.0 SSW | 210 5.9 21.1 WSW | 254 48.2 59.8 27.3
8/29/26 - 1545 57.0 - 48 37.6 47.5 SSW | 199 4.5 15.9 SE | 145 48.2 59.8 27.3
8/29/26 - 1530 56.8 - 49 37.7 47.5 SSW | 203 4.8 20.5 SSE | 162 48.2 59.8 27.3
8/29/26 - 1515 58.0 - 47 38.0 48.1 SW | 215 6.6 17.9 SW | 217 48.2 59.8 27.3
8/29/26 - 1500 57.7 - 47 37.4 47.7 SW | 216 7.9 22.0 WSW | 248 48.2 59.8 27.3
8/29/26 - 1445 57.3 - 47 37.2 47.5 SW | 214 7.1 19.2 SW | 214 48.2 59.4 27.3
8/29/26 - 1430 57.7 - 44 35.9 47.1 SSW | 202 8.1 24.0 WSW | 245 48.2 59.4 27.3
8/29/26 - 1415 57.3 - 42 34.2 46.3 SW | 221 5.5 19.8 SSW | 193 48.2 59.4 27.3
8/29/26 - 1400 58.0 - 40 33.9 46.5 SSW | 207 9.3 24.4 W | 273 48.2 59.4 27.3
8/29/26 - 1345 57.4 - 46 36.6 47.3 SSW | 213 8.1 21.4 WSW | 243 48.2 59.3 27.3
8/29/26 - 1330 57.7 - 46 36.8 47.5 SSW | 200 9.4 21.9 SSW | 198 48.2 58.8 27.3
8/29/26 - 1315 57.0 - 47 37.0 47.3 SSW | 208 4.4 17.7 SW | 215 48.2 58.3 27.3
8/29/26 - 1300 56.1 - 51 38.2 47.4 SW | 230 7.4 25.2 SSW | 197 48.2 57.2 27.3
8/29/26 - 1245 55.6 - 60 41.7 48.8 S | 191 6.1 19.3 SSW | 201 48.2 57.2 27.3
8/29/26 - 1230 54.6 - 65 43.1 49.0 SSW | 202 5.7 20.4 SSW | 198 48.2 55.7 27.3
8/29/26 - 1215 54.1 - 66 43.2 48.8 SSW | 207 4.2 15.2 W | 280 48.2 55.0 27.3
8/29/26 - 1200 53.4 - 68 43.0 48.4 SSW | 209 4.2 19.7 SW | 236 48.2 54.4 27.3
8/29/26 - 1145 53.0 - 69 43.2 48.4 SSW | 203 5.3 16.6 WSW | 250 48.2 54.4 27.3
8/29/26 - 1130 52.7 - 71 43.6 48.4 S | 191 4.9 19.0 SSW | 194 48.2 54.4 27.3
8/29/26 - 1115 52.7 - 71 43.5 48.4 SSW | 201 5.2 18.9 SSW | 204 48.2 53.7 27.3
8/29/26 - 1100 52.3 - 72 43.5 48.2 SW | 221 5.5 20.4 SSW | 212 48.2 53.5 27.3
8/29/26 - 1045 51.5 - 73 43.2 47.7 SSW | 212 7.0 24.9 S | 173 48.2 52.8 27.3
8/29/26 - 1030 51.7 - 73 43.4 47.9 SSW | 207 5.3 20.2 SW | 236 48.2 52.8 27.3
8/29/26 - 1015 51.0 - 74 43.0 47.4 SW | 219 6.1 17.4 SSW | 208 48.2 52.1 27.3
8/29/26 - 1000 50.2 - 75 42.7 46.8 SW | 220 6.2 16.3 SW | 233 48.2 51.1 27.3
8/29/26 - 0945 49.8 47.8 77 42.9 46.7 SSW | 213 5.2 23.2 SSW | 195 48.2 51.0 27.3
8/29/26 - 0930 50.0 - 77 43.1 47.0 SW | 217 5.2 16.2 W | 271 48.2 51.0 27.3
8/29/26 - 0915 49.5 47.0 78 43.0 46.7 SW | 214 6.2 16.4 SW | 230 48.2 50.2 27.3
8/29/26 - 0900 49.0 47.5 80 43.0 46.4 SSW | 203 4.3 15.0 S | 172 48.2 50.0 27.3
8/29/26 - 0845 48.9 47.7 81 43.2 46.5 SW | 232 3.8 12.4 SSW | 197 48.2 50.0 27.3
8/29/26 - 0830 49.3 48.0 79 43.2 46.7 SW | 226 4.2 17.9 WNW | 292 48.2 50.0 27.3
8/29/26 - 0815 49.1 46.7 79 43.0 46.5 SW | 226 5.8 18.5 WSW | 255 48.2 49.8 27.3
8/29/26 - 0800 48.4 46.8 82 43.0 46.1 WSW | 238 4.2 12.6 WSW | 246 48.2 49.8 27.3
8/29/26 - 0745 48.3 46.0 81 42.9 46.0 SW | 234 5.3 14.6 W | 268 48.2 49.8 27.3
8/29/26 - 0730 48.3 46.9 81 42.8 46.0 SW | 228 4.0 12.1 WSW | 254 48.2 49.8 27.3
8/29/26 - 0715 48.3 - 81 42.8 46.0 SSW | 208 1.5 10.6 SW | 214 48.2 49.8 27.3
8/29/26 - 0700 48.7 48.1 80 42.7 46.2 SW | 220 3.2 12.5 SW | 219 48.2 49.8 27.3
8/29/26 - 0645 48.6 47.0 80 42.7 46.1 SW | 216 4.4 18.6 SSW | 209 48.2 49.8 27.3
8/29/26 - 0630 48.4 47.0 80 42.6 45.9 SW | 234 4.1 15.8 SW | 218 48.2 49.8 27.3
8/29/26 - 0615 48.5 45.8 80 42.6 46.0 SW | 232 6.2 16.6 WSW | 246 48.2 49.8 27.3
8/29/26 - 0600 48.6 45.7 80 42.6 46.0 SW | 216 6.4 22.7 WSW | 244 48.5 49.8 27.3
8/29/26 - 0545 48.7 45.2 79 42.5 46.0 SW | 219 8.0 24.0 WSW | 251 48.5 49.8 27.3
8/29/26 - 0530 48.8 44.6 79 42.6 46.1 SW | 229 9.7 27.1 SW | 220 48.6 49.8 27.3
8/29/26 - 0515 49.0 45.2 78 42.5 46.2 SW | 226 8.8 22.8 SSW | 209 48.7 49.8 27.3
8/29/26 - 0500 49.0 44.7 78 42.5 46.2 SW | 229 10.5 26.8 SW | 217 48.8 49.8 27.3
8/29/26 - 0445 49.0 44.3 78 42.5 46.2 SW | 234 11.6 22.5 WSW | 248 48.8 49.8 27.3
8/29/26 - 0430 49.1 45.4 78 42.4 46.2 SW | 225 8.8 22.0 WSW | 245 48.9 49.8 27.3
8/29/26 - 0415 49.1 45.4 78 42.5 46.2 SW | 229 8.8 22.8 SSW | 194 48.9 49.8 27.3
8/29/26 - 0400 49.1 45.6 78 42.4 46.2 SW | 233 8.3 21.8 SW | 234 48.9 49.8 27.3
8/29/26 - 0345 49.1 45.2 78 42.5 46.2 SW | 227 9.1 25.1 SSW | 206 48.9 49.8 27.3
8/29/26 - 0330 49.1 45.5 78 42.5 46.2 SW | 226 8.6 21.1 WSW | 249 49.1 49.8 27.3
8/29/26 - 0315 49.3 45.2 77 42.4 46.2 SW | 227 9.8 23.6 WSW | 250 49.1 49.8 27.3
8/29/26 - 0300 49.2 45.2 77 42.4 46.2 SW | 226 9.7 21.8 SW | 236 49.1 49.8 27.3
8/29/26 - 0245 49.4 45.2 77 42.4 46.3 SW | 232 10.0 27.3 WSW | 240 49.1 49.8 27.3
8/29/26 - 0230 49.2 45.0 77 42.5 46.3 SW | 222 10.2 21.7 SW | 221 49.1 49.8 26.1
8/29/26 - 0215 49.3 45.5 77 42.5 46.3 SW | 224 9.0 24.5 SSW | 198 49.1 49.8 26.1
8/29/26 - 0200 49.3 45.8 77 42.6 46.3 SW | 224 8.3 19.0 S | 173 49.1 49.8 26.1
8/29/26 - 0145 49.3 45.9 78 42.7 46.4 SW | 216 7.9 21.1 SSW | 213 49.1 49.8 26.1
8/29/26 - 0130 49.5 46.4 77 42.5 46.4 SW | 214 7.3 19.8 S | 178 49.2 49.8 26.1
8/29/26 - 0115 49.5 45.7 76 42.5 46.4 SW | 232 9.3 26.1 SW | 235 49.3 49.8 26.1
8/29/26 - 0100 49.7 45.4 76 42.3 46.4 SW | 227 10.8 26.1 WSW | 254 47.3 56.6 37.1
8/29/26 - 0045 49.7 46.0 76 42.4 46.4 SW | 222 9.1 21.0 SW | 233 47.3 56.6 37.1
8/29/26 - 0030 49.7 45.7 76 42.4 46.4 SW | 217 9.8 25.2 W | 261 47.3 56.6 37.1
8/29/26 - 0015 49.7 45.7 76 42.5 46.5 SW | 216 9.8 26.8 WSW | 247 47.3 56.6 37.1
8/29/26 - 0000 49.6 47.0 77 42.6 46.5 SW | 224 6.2 20.5 SSW | 205 47.3 56.6 37.1
8/28/26 - 2345 49.6 46.9 77 42.7 46.6 SW | 221 6.6 17.3 WSW | 244 47.3 56.6 37.1
8/28/26 - 2330 49.4 46.7 77 42.7 46.5 SW | 224 6.6 20.4 SSW | 197 47.3 56.6 37.1
8/28/26 - 2315 49.5 46.7 77 42.7 46.5 SW | 236 6.7 16.0 WSW | 242 47.3 56.6 37.1
8/28/26 - 2300 49.6 46.9 77 42.8 46.6 SW | 221 6.5 16.5 WSW | 242 47.3 56.6 37.1
8/28/26 - 2245 49.8 48.4 76 42.7 46.6 SW | 223 4.4 20.0 SW | 220 47.3 56.6 37.1
8/28/26 - 2230 49.9 48.6 75 42.5 46.6 SSW | 213 4.2 17.3 SW | 218 47.3 56.6 37.1
8/28/26 - 2215 49.9 48.0 76 42.6 46.6 SW | 219 5.2 20.0 SW | 226 47.3 56.6 37.1
8/28/26 - 2200 49.8 47.6 76 42.6 46.6 SW | 226 5.8 19.6 WSW | 254 47.3 56.6 37.1
8/28/26 - 2145 49.8 48.2 76 42.6 46.6 SW | 225 4.6 17.0 SW | 228 47.3 56.6 37.1
8/28/26 - 2130 49.9 48.2 75 42.3 46.5 SW | 224 5.0 19.2 WNW | 286 47.3 56.6 37.1
8/28/26 - 2115 49.7 47.1 76 42.2 46.4 SW | 225 6.4 17.1 WSW | 244 47.3 56.6 37.1
8/28/26 - 2100 49.3 46.4 77 42.6 46.3 SW | 232 6.8 19.8 SW | 234 47.3 56.6 37.1
8/28/26 - 2045 48.7 45.9 81 43.2 46.4 WSW | 238 6.5 18.2 SW | 223 47.3 56.6 37.1
8/28/26 - 2030 48.6 44.7 81 43.1 46.3 WSW | 238 8.8 21.8 W | 260 47.3 56.6 37.1
8/28/26 - 2015 48.5 45.1 82 43.1 46.2 SW | 226 7.5 24.2 SW | 232 47.3 56.6 37.1
8/28/26 - 2000 48.3 44.7 82 43.2 46.2 SW | 234 8.0 22.7 WSW | 246 47.3 56.6 37.1
8/28/26 - 1945 48.5 44.5 82 43.2 46.2 SW | 225 9.0 22.1 SW | 218 47.3 56.6 37.1
8/28/26 - 1930 48.2 44.4 84 43.6 46.4 SW | 223 8.4 18.3 WSW | 243 47.3 56.6 37.1
8/28/26 - 1915 48.1 42.8 86 44.0 46.5 SW | 216 13.0 30.0 SSW | 205 47.3 56.6 37.1
8/28/26 - 1900 48.6 44.7 85 44.2 46.8 SW | 217 9.0 23.0 SW | 231 47.3 56.6 37.1
8/28/26 - 1845 49.5 45.1 80 43.5 46.9 SW | 216 11.0 26.7 SW | 228 47.3 56.6 37.1
8/28/26 - 1830 49.6 45.7 79 43.4 46.9 SW | 219 9.3 24.4 SSW | 205 47.3 56.6 37.1
8/28/26 - 1815 49.6 45.4 79 43.4 46.9 SW | 218 10.5 27.1 S | 180 47.3 56.6 37.1
8/28/26 - 1800 49.3 44.3 81 43.9 47.0 SW | 214 13.0 29.8 WSW | 237 47.3 56.6 37.1
8/28/26 - 1745 48.9 44.0 85 44.5 47.2 SW | 220 12.2 28.3 SW | 226 47.3 56.6 37.1
8/28/26 - 1730 48.4 43.3 88 45.0 47.2 SW | 214 12.4 33.3 SSW | 210 47.3 56.6 37.1
8/28/26 - 1715 47.9 44.0 89 45.0 46.9 SW | 214 8.5 20.8 SSW | 206 47.3 56.6 37.1
8/28/26 - 1700 47.8 44.5 90 44.8 46.8 SW | 217 7.0 34.2 WSW | 256 47.3 56.6 37.1
Max 62.7 48.6 90 45.0 49.0 - 13.0 34.2 - 49.3 64.0 37.1
Avg 52.2 45.8 53 32.5 44.0 - 6.1 17.4 - - - -
Min 47.8 42.8 14 10.0 37.4 - 0.4 2.0 - 47.3 49.1 15.9